TimeMDT,TemperatureF,Dew PointF,Humidity,Sea Level PressureIn,VisibilityMPH,Wind Direction,Wind SpeedMPH,Gust SpeedMPH,PrecipitationIn,Events,Conditions,WindDirDegrees,DateUTC
12:55 PM,33.8,32.0,93,30.13,1.8,Calm,Calm,-,N/A,,Overcast,0,2013-10-17 18:55:00
1:15 PM,33.8,32.0,93,30.12,9.0,ENE,3.5,-,N/A,,Overcast,70,2013-10-17 19:15:00
1:35 PM,35.6,32.0,87,30.12,10.0,Calm,Calm,-,N/A,,Overcast,0,2013-10-17 19:35:00
2:15 PM,35.6,33.8,93,30.11,10.0,Calm,Calm,-,N/A,,Overcast,0,2013-10-17 20:15:00
2:35 PM,35.6,32.0,87,30.11,10.0,Calm,Calm,-,N/A,,Mostly Cloudy,0,2013-10-17 20:35:00
2:55 PM,33.8,32.0,93,30.11,2.0,North,6.9,-,N/A,,Overcast,10,2013-10-17 20:55:00
3:15 PM,33.8,32.0,93,30.12,0.8,North,5.8,-,N/A,,Overcast,10,2013-10-17 21:15:00
3:35 PM,32.0,30.2,93,30.12,0.5,Calm,Calm,-,N/A,,Overcast,0,2013-10-17 21:35:00
3:55 PM,33.8,32.0,93,30.12,1.0,Calm,Calm,-,0.01,,Overcast,0,2013-10-17 21:55:00
4:15 PM,32.0,32.0,100,30.11,0.8,Calm,Calm,-,N/A,,Overcast,0,2013-10-17 22:15:00
4:35 PM,32.0,30.2,93,30.10,3.0,Calm,Calm,-,N/A,,Mostly Cloudy,0,2013-10-17 22:35:00
4:55 PM,33.8,32.0,93,30.11,10.0,Calm,Calm,-,N/A,,Scattered Clouds,0,2013-10-17 22:55:00
5:15 PM,33.8,32.0,93,30.11,10.0,Calm,Calm,-,N/A,,Mostly Cloudy,0,2013-10-17 23:15:00
5:35 PM,33.8,32.0,93,30.11,10.0,Calm,Calm,-,N/A,,Overcast,0,2013-10-17 23:35:00
5:55 PM,33.8,32.0,93,30.12,10.0,Calm,Calm,-,N/A,,Overcast,0,2013-10-17 23:55:00
6:15 PM,33.8,30.2,87,30.12,10.0,Calm,Calm,-,N/A,,Overcast,0,2013-10-18 00:15:00
6:35 PM,33.8,32.0,93,30.12,10.0,North,3.5,-,N/A,,Overcast,360,2013-10-18 00:35:00
6:55 PM,33.8,30.2,87,30.13,1.8,Calm,Calm,-,N/A,,Overcast,0,2013-10-18 00:55:00
7:15 PM,32.0,30.2,93,30.13,1.8,SW,3.5,-,N/A,,Overcast,230,2013-10-18 01:15:00
7:35 PM,32.0,30.2,93,30.13,3.0,SSW,4.6,-,N/A,,Mostly Cloudy,210,2013-10-18 01:35:00
7:55 PM,32.0,32.0,100,30.13,2.5,SSW,5.8,-,N/A,,Overcast,200,2013-10-18 01:55:00
8:15 PM,32.0,30.2,93,30.13,10.0,SSW,5.8,-,N/A,,Overcast,210,2013-10-18 02:15:00
8:35 PM,32.0,30.2,93,30.13,10.0,SSW,5.8,-,N/A,,Overcast,200,2013-10-18 02:35:00
8:55 PM,33.8,30.2,87,30.14,10.0,South,3.5,-,N/A,,Overcast,170,2013-10-18 02:55:00
9:15 PM,32.0,30.2,93,30.13,10.0,SSW,8.1,-,N/A,,Overcast,210,2013-10-18 03:15:00
9:35 PM,33.8,30.2,87,30.14,10.0,Calm,Calm,-,N/A,,Overcast,0,2013-10-18 03:35:00
9:55 PM,33.8,30.2,87,30.15,10.0,SW,3.5,-,N/A,,Overcast,220,2013-10-18 03:55:00
10:15 PM,32.0,30.2,93,30.15,6.0,Calm,Calm,-,N/A,,Overcast,0,2013-10-18 04:15:00
10:35 PM,30.2,28.4,93,30.15,5.0,Calm,Calm,-,N/A,,Overcast,0,2013-10-18 04:35:00
10:55 PM,28.4,28.4,100,30.17,0.2,Calm,Calm,-,N/A,,Overcast,0,2013-10-18 04:55:00
11:15 PM,30.2,30.2,100,30.18,3.0,NNE,5.8,-,N/A,,Mostly Cloudy,20,2013-10-18 05:15:00
11:35 PM,30.2,30.2,100,30.18,3.0,North,17.3,26.5,N/A,,Overcast,10,2013-10-18 05:35:00